< < Back
Terminal Aerodrome Forecast


Current Version              Previous Versions:   1  2  3  4  5  6  7  8  9  

Terminal Aerodrome Forecast

300
FTUS42 KGSP 210500
TAFAND
TAF
KAND 210520Z 2106/2206 01004KT P6SM FEW250
     FM211700 29003KT P6SM FEW250
     FM212000 23005KT P6SM FEW250=

Latest METAR

953
SAUS70 KWBC 211200 RRD
MTRAND
METAR KAND 211156Z AUTO 00000KT 10SM CLR 11/05 A3019 RMK AO2 SLP219
T01060050 10106 20067 53011


USA.gov is the U.S. government's official web portal to all federal, state and local government web resources and services.